Freelandville, Indiana
Current Conditions -  °F | °C
As of 5:55 PM on Friday 31 Oct 2014 (Local Time) from KDCY Reporting Station
Overcast Overcast  
Wind Chill: 28°   Ceiling: 4400
Heat Index: 40°   Visibility: 10mi
Dew Point: 30°   Wind: 31mph
Humidity: 67%   Direction: 330°NNW
Pressure: 30.12"   Gusts: 43mph
Location:  38.86°N, 87.31°W
Report Text: KDCY 312255Z AUTO 33027G37KT 10SM BKN044 OVC050 04/M01 A3012 RMK AO2 T00441013
Loading
Personal Weather Stations






























Interactive Weather Map
Tropical Storm Tracking
New forecast layout! Learn more

10-Day Weather Forecast

Advertisements
Track Severe Weather on mobile